sensor_id;sensor_type;location;lat;lon;timestamp;P1;durP1;ratioP1;P2;durP2;ratioP2
11004;SDS011;5555;59.622;16.556;2023-06-04T00:00:46;2.90;;;1.10;;
11004;SDS011;5555;59.622;16.556;2023-06-04T00:03:12;1.17;;;1.03;;
11004;SDS011;5555;59.622;16.556;2023-06-04T00:05:38;2.13;;;1.10;;
11004;SDS011;5555;59.622;16.556;2023-06-04T00:08:04;1.47;;;1.27;;
11004;SDS011;5555;59.622;16.556;2023-06-04T00:10:29;1.57;;;1.20;;
11004;SDS011;5555;59.622;16.556;2023-06-04T00:12:56;2.23;;;1.20;;
11004;SDS011;5555;59.622;16.556;2023-06-04T00:15:22;1.57;;;1.10;;
11004;SDS011;5555;59.622;16.556;2023-06-04T00:17:47;2.10;;;1.30;;
11004;SDS011;5555;59.622;16.556;2023-06-04T00:20:13;1.40;;;1.00;;
11004;SDS011;5555;59.622;16.556;2023-06-04T00:22:39;1.00;;;0.90;;
11004;SDS011;5555;59.622;16.556;2023-06-04T00:25:06;1.37;;;1.03;;
11004;SDS011;5555;59.622;16.556;2023-06-04T00:27:33;1.60;;;1.13;;
11004;SDS011;5555;59.622;16.556;2023-06-04T00:29:59;1.10;;;1.00;;
11004;SDS011;5555;59.622;16.556;2023-06-04T00:32:25;0.90;;;0.80;;
11004;SDS011;5555;59.622;16.556;2023-06-04T00:34:51;1.37;;;1.03;;
11004;SDS011;5555;59.622;16.556;2023-06-04T00:37:17;3.67;;;0.97;;
11004;SDS011;5555;59.622;16.556;2023-06-04T00:39:43;1.00;;;0.90;;
11004;SDS011;5555;59.622;16.556;2023-06-04T00:42:08;0.83;;;0.80;;
11004;SDS011;5555;59.622;16.556;2023-06-04T00:44:34;1.30;;;0.80;;
11004;SDS011;5555;59.622;16.556;2023-06-04T00:47:01;3.97;;;0.60;;
11004;SDS011;5555;59.622;16.556;2023-06-04T00:49:27;1.03;;;0.63;;
11004;SDS011;5555;59.622;16.556;2023-06-04T00:51:53;1.13;;;0.53;;
11004;SDS011;5555;59.622;16.556;2023-06-04T00:54:19;0.90;;;0.73;;
11004;SDS011;5555;59.622;16.556;2023-06-04T00:56:45;1.53;;;0.70;;
11004;SDS011;5555;59.622;16.556;2023-06-04T00:59:12;0.90;;;0.70;;
11004;SDS011;5555;59.622;16.556;2023-06-04T01:07:00;0.60;;;0.60;;
11004;SDS011;5555;59.622;16.556;2023-06-04T01:09:29;0.90;;;0.80;;
11004;SDS011;5555;59.622;16.556;2023-06-04T01:11:58;0.80;;;0.80;;
11004;SDS011;5555;59.622;16.556;2023-06-04T01:14:24;1.53;;;0.90;;
11004;SDS011;5555;59.622;16.556;2023-06-04T01:16:58;0.93;;;0.83;;
11004;SDS011;5555;59.622;16.556;2023-06-04T01:25:22;0.93;;;0.83;;
11004;SDS011;5555;59.622;16.556;2023-06-04T01:27:52;1.07;;;0.97;;
11004;SDS011;5555;59.622;16.556;2023-06-04T01:30:26;1.13;;;0.90;;
11004;SDS011;5555;59.622;16.556;2023-06-04T01:32:57;1.53;;;0.90;;
11004;SDS011;5555;59.622;16.556;2023-06-04T01:35:26;1.30;;;0.90;;
11004;SDS011;5555;59.622;16.556;2023-06-04T01:37:52;0.70;;;0.70;;
11004;SDS011;5555;59.622;16.556;2023-06-04T01:40:19;1.00;;;0.90;;
11004;SDS011;5555;59.622;16.556;2023-06-04T01:42:45;0.80;;;0.80;;
11004;SDS011;5555;59.622;16.556;2023-06-04T01:45:11;0.97;;;0.70;;
11004;SDS011;5555;59.622;16.556;2023-06-04T01:47:36;0.63;;;0.63;;
11004;SDS011;5555;59.622;16.556;2023-06-04T01:50:03;1.53;;;0.67;;
11004;SDS011;5555;59.622;16.556;2023-06-04T01:52:30;1.87;;;0.70;;
11004;SDS011;5555;59.622;16.556;2023-06-04T01:54:56;0.50;;;0.50;;
11004;SDS011;5555;59.622;16.556;2023-06-04T01:57:22;0.80;;;0.60;;
11004;SDS011;5555;59.622;16.556;2023-06-04T01:59:48;1.00;;;0.50;;
11004;SDS011;5555;59.622;16.556;2023-06-04T02:02:13;1.40;;;0.57;;
11004;SDS011;5555;59.622;16.556;2023-06-04T02:04:40;1.00;;;0.63;;
11004;SDS011;5555;59.622;16.556;2023-06-04T02:07:10;0.80;;;0.40;;
11004;SDS011;5555;59.622;16.556;2023-06-04T02:09:36;1.20;;;0.57;;
11004;SDS011;5555;59.622;16.556;2023-06-04T02:12:02;2.53;;;0.60;;
11004;SDS011;5555;59.622;16.556;2023-06-04T02:14:28;1.17;;;0.40;;
11004;SDS011;5555;59.622;16.556;2023-06-04T02:16:54;0.77;;;0.50;;
11004;SDS011;5555;59.622;16.556;2023-06-04T02:19:23;1.03;;;0.40;;
11004;SDS011;5555;59.622;16.556;2023-06-04T02:21:50;0.50;;;0.40;;
11004;SDS011;5555;59.622;16.556;2023-06-04T02:24:17;1.23;;;0.50;;
11004;SDS011;5555;59.622;16.556;2023-06-04T02:26:42;0.50;;;0.50;;
11004;SDS011;5555;59.622;16.556;2023-06-04T02:29:08;0.70;;;0.40;;
11004;SDS011;5555;59.622;16.556;2023-06-04T02:31:33;0.50;;;0.40;;
11004;SDS011;5555;59.622;16.556;2023-06-04T02:33:59;0.43;;;0.43;;
11004;SDS011;5555;59.622;16.556;2023-06-04T02:36:25;0.80;;;0.63;;
11004;SDS011;5555;59.622;16.556;2023-06-04T02:38:50;1.70;;;0.60;;
11004;SDS011;5555;59.622;16.556;2023-06-04T02:41:16;0.60;;;0.43;;
11004;SDS011;5555;59.622;16.556;2023-06-04T02:43:41;0.80;;;0.50;;
11004;SDS011;5555;59.622;16.556;2023-06-04T02:46:07;1.27;;;0.50;;
11004;SDS011;5555;59.622;16.556;2023-06-04T02:48:33;0.50;;;0.50;;
11004;SDS011;5555;59.622;16.556;2023-06-04T02:50:59;0.63;;;0.47;;
11004;SDS011;5555;59.622;16.556;2023-06-04T02:53:24;1.20;;;0.47;;
11004;SDS011;5555;59.622;16.556;2023-06-04T02:55:50;0.50;;;0.50;;
11004;SDS011;5555;59.622;16.556;2023-06-04T02:58:17;2.10;;;0.60;;
11004;SDS011;5555;59.622;16.556;2023-06-04T03:00:42;0.67;;;0.50;;
11004;SDS011;5555;59.622;16.556;2023-06-04T03:03:08;0.40;;;0.40;;
11004;SDS011;5555;59.622;16.556;2023-06-04T03:05:33;0.57;;;0.50;;
11004;SDS011;5555;59.622;16.556;2023-06-04T03:08:00;1.37;;;0.40;;
11004;SDS011;5555;59.622;16.556;2023-06-04T03:10:27;0.50;;;0.47;;
11004;SDS011;5555;59.622;16.556;2023-06-04T03:12:52;1.67;;;0.30;;
11004;SDS011;5555;59.622;16.556;2023-06-04T03:15:18;0.37;;;0.37;;
11004;SDS011;5555;59.622;16.556;2023-06-04T03:17:44;0.50;;;0.33;;
11004;SDS011;5555;59.622;16.556;2023-06-04T03:20:10;0.60;;;0.40;;
11004;SDS011;5555;59.622;16.556;2023-06-04T03:22:35;1.20;;;0.50;;
11004;SDS011;5555;59.622;16.556;2023-06-04T03:25:01;1.00;;;0.43;;
11004;SDS011;5555;59.622;16.556;2023-06-04T03:27:28;0.63;;;0.50;;
11004;SDS011;5555;59.622;16.556;2023-06-04T03:29:55;0.40;;;0.40;;
11004;SDS011;5555;59.622;16.556;2023-06-04T03:32:20;0.60;;;0.53;;
11004;SDS011;5555;59.622;16.556;2023-06-04T03:34:46;0.90;;;0.33;;
11004;SDS011;5555;59.622;16.556;2023-06-04T03:37:12;0.63;;;0.50;;
11004;SDS011;5555;59.622;16.556;2023-06-04T03:39:37;0.60;;;0.50;;
11004;SDS011;5555;59.622;16.556;2023-06-04T03:42:03;0.47;;;0.43;;
11004;SDS011;5555;59.622;16.556;2023-06-04T03:44:29;0.40;;;0.40;;
11004;SDS011;5555;59.622;16.556;2023-06-04T03:46:55;0.37;;;0.37;;
11004;SDS011;5555;59.622;16.556;2023-06-04T03:49:21;0.70;;;0.50;;
11004;SDS011;5555;59.622;16.556;2023-06-04T03:51:47;0.30;;;0.30;;
11004;SDS011;5555;59.622;16.556;2023-06-04T03:54:13;0.40;;;0.40;;
11004;SDS011;5555;59.622;16.556;2023-06-04T03:56:41;0.30;;;0.30;;
11004;SDS011;5555;59.622;16.556;2023-06-04T03:59:10;0.37;;;0.30;;
11004;SDS011;5555;59.622;16.556;2023-06-04T04:01:36;1.57;;;0.20;;
11004;SDS011;5555;59.622;16.556;2023-06-04T04:04:02;0.47;;;0.40;;
11004;SDS011;5555;59.622;16.556;2023-06-04T04:06:28;0.40;;;0.20;;
11004;SDS011;5555;59.622;16.556;2023-06-04T04:08:54;0.47;;;0.47;;
11004;SDS011;5555;59.622;16.556;2023-06-04T04:11:20;0.30;;;0.30;;
11004;SDS011;5555;59.622;16.556;2023-06-04T04:13:46;0.33;;;0.33;;
11004;SDS011;5555;59.622;16.556;2023-06-04T04:16:13;0.60;;;0.50;;
11004;SDS011;5555;59.622;16.556;2023-06-04T04:18:41;0.40;;;0.40;;
11004;SDS011;5555;59.622;16.556;2023-06-04T04:21:08;2.20;;;0.40;;
11004;SDS011;5555;59.622;16.556;2023-06-04T04:23:35;0.50;;;0.37;;
11004;SDS011;5555;59.622;16.556;2023-06-04T04:26:03;0.30;;;0.30;;
11004;SDS011;5555;59.622;16.556;2023-06-04T04:28:28;0.50;;;0.43;;
11004;SDS011;5555;59.622;16.556;2023-06-04T04:30:55;0.63;;;0.40;;
11004;SDS011;5555;59.622;16.556;2023-06-04T04:33:27;1.27;;;0.40;;
11004;SDS011;5555;59.622;16.556;2023-06-04T04:36:04;0.47;;;0.40;;
11004;SDS011;5555;59.622;16.556;2023-06-04T04:38:33;0.50;;;0.30;;
11004;SDS011;5555;59.622;16.556;2023-06-04T04:40:59;1.10;;;0.30;;
11004;SDS011;5555;59.622;16.556;2023-06-04T04:43:29;1.27;;;0.30;;
11004;SDS011;5555;59.622;16.556;2023-06-04T04:45:56;0.40;;;0.40;;
11004;SDS011;5555;59.622;16.556;2023-06-04T04:48:21;0.30;;;0.30;;
11004;SDS011;5555;59.622;16.556;2023-06-04T04:50:47;0.30;;;0.30;;
11004;SDS011;5555;59.622;16.556;2023-06-04T04:53:12;0.73;;;0.40;;
11004;SDS011;5555;59.622;16.556;2023-06-04T04:55:38;0.30;;;0.20;;
11004;SDS011;5555;59.622;16.556;2023-06-04T04:58:04;0.30;;;0.30;;
11004;SDS011;5555;59.622;16.556;2023-06-04T05:00:29;0.47;;;0.40;;
11004;SDS011;5555;59.622;16.556;2023-06-04T05:02:55;1.20;;;0.30;;
11004;SDS011;5555;59.622;16.556;2023-06-04T05:05:21;0.20;;;0.20;;
11004;SDS011;5555;59.622;16.556;2023-06-04T05:07:46;1.27;;;0.30;;
11004;SDS011;5555;59.622;16.556;2023-06-04T05:10:12;0.57;;;0.30;;
11004;SDS011;5555;59.622;16.556;2023-06-04T05:12:38;0.23;;;0.20;;
11004;SDS011;5555;59.622;16.556;2023-06-04T05:15:04;0.27;;;0.27;;
11004;SDS011;5555;59.622;16.556;2023-06-04T05:17:30;0.73;;;0.30;;
11004;SDS011;5555;59.622;16.556;2023-06-04T05:19:58;0.40;;;0.30;;
11004;SDS011;5555;59.622;16.556;2023-06-04T05:22:36;0.30;;;0.30;;
11004;SDS011;5555;59.622;16.556;2023-06-04T05:25:02;0.20;;;0.20;;
11004;SDS011;5555;59.622;16.556;2023-06-04T05:27:28;0.20;;;0.20;;
11004;SDS011;5555;59.622;16.556;2023-06-04T05:29:56;0.27;;;0.27;;
11004;SDS011;5555;59.622;16.556;2023-06-04T05:32:22;0.37;;;0.30;;
11004;SDS011;5555;59.622;16.556;2023-06-04T05:34:48;0.20;;;0.20;;
11004;SDS011;5555;59.622;16.556;2023-06-04T05:37:14;1.13;;;0.27;;
11004;SDS011;5555;59.622;16.556;2023-06-04T05:39:41;0.20;;;0.20;;
11004;SDS011;5555;59.622;16.556;2023-06-04T05:42:07;0.37;;;0.30;;
11004;SDS011;5555;59.622;16.556;2023-06-04T05:44:33;0.63;;;0.30;;
11004;SDS011;5555;59.622;16.556;2023-06-04T05:46:59;0.37;;;0.20;;
11004;SDS011;5555;59.622;16.556;2023-06-04T05:49:24;0.30;;;0.30;;
11004;SDS011;5555;59.622;16.556;2023-06-04T05:51:51;0.63;;;0.20;;
11004;SDS011;5555;59.622;16.556;2023-06-04T05:54:16;0.40;;;0.20;;
11004;SDS011;5555;59.622;16.556;2023-06-04T05:56:42;0.30;;;0.20;;
11004;SDS011;5555;59.622;16.556;2023-06-04T05:59:07;1.30;;;0.20;;
11004;SDS011;5555;59.622;16.556;2023-06-04T06:01:33;1.07;;;0.30;;
11004;SDS011;5555;59.622;16.556;2023-06-04T06:03:59;0.83;;;0.27;;
11004;SDS011;5555;59.622;16.556;2023-06-04T06:06:25;0.77;;;0.20;;
11004;SDS011;5555;59.622;16.556;2023-06-04T06:08:51;1.00;;;0.20;;
11004;SDS011;5555;59.622;16.556;2023-06-04T06:11:17;0.63;;;0.20;;
11004;SDS011;5555;59.622;16.556;2023-06-04T06:13:43;0.20;;;0.20;;
11004;SDS011;5555;59.622;16.556;2023-06-04T06:16:09;0.27;;;0.20;;
11004;SDS011;5555;59.622;16.556;2023-06-04T06:18:34;1.90;;;0.37;;
11004;SDS011;5555;59.622;16.556;2023-06-04T06:21:00;0.20;;;0.20;;
11004;SDS011;5555;59.622;16.556;2023-06-04T06:23:26;0.33;;;0.20;;
11004;SDS011;5555;59.622;16.556;2023-06-04T06:25:51;0.20;;;0.13;;
11004;SDS011;5555;59.622;16.556;2023-06-04T06:28:20;0.30;;;0.20;;
11004;SDS011;5555;59.622;16.556;2023-06-04T06:30:46;0.20;;;0.20;;
11004;SDS011;5555;59.622;16.556;2023-06-04T06:33:12;0.63;;;0.20;;
11004;SDS011;5555;59.622;16.556;2023-06-04T06:35:38;0.20;;;0.20;;
11004;SDS011;5555;59.622;16.556;2023-06-04T06:38:04;0.30;;;0.30;;
11004;SDS011;5555;59.622;16.556;2023-06-04T06:40:30;0.20;;;0.20;;
11004;SDS011;5555;59.622;16.556;2023-06-04T06:42:56;0.47;;;0.17;;
11004;SDS011;5555;59.622;16.556;2023-06-04T06:45:21;0.30;;;0.30;;
11004;SDS011;5555;59.622;16.556;2023-06-04T06:47:47;0.10;;;0.10;;
11004;SDS011;5555;59.622;16.556;2023-06-04T06:50:13;0.37;;;0.20;;
11004;SDS011;5555;59.622;16.556;2023-06-04T06:52:38;0.50;;;0.20;;
11004;SDS011;5555;59.622;16.556;2023-06-04T06:55:04;0.20;;;0.10;;
11004;SDS011;5555;59.622;16.556;2023-06-04T06:57:30;0.63;;;0.20;;
11004;SDS011;5555;59.622;16.556;2023-06-04T06:59:56;0.67;;;0.20;;
11004;SDS011;5555;59.622;16.556;2023-06-04T07:02:21;0.40;;;0.30;;
11004;SDS011;5555;59.622;16.556;2023-06-04T07:04:47;0.30;;;0.30;;
11004;SDS011;5555;59.622;16.556;2023-06-04T07:07:13;1.30;;;0.30;;
11004;SDS011;5555;59.622;16.556;2023-06-04T07:09:38;0.40;;;0.10;;
11004;SDS011;5555;59.622;16.556;2023-06-04T07:12:04;0.10;;;0.10;;
11004;SDS011;5555;59.622;16.556;2023-06-04T07:14:31;0.47;;;0.20;;
11004;SDS011;5555;59.622;16.556;2023-06-04T07:16:57;1.30;;;0.10;;
11004;SDS011;5555;59.622;16.556;2023-06-04T07:19:22;0.40;;;0.20;;
11004;SDS011;5555;59.622;16.556;2023-06-04T07:21:48;0.30;;;0.27;;
11004;SDS011;5555;59.622;16.556;2023-06-04T07:24:15;0.83;;;0.30;;
11004;SDS011;5555;59.622;16.556;2023-06-04T07:26:40;0.30;;;0.20;;
11004;SDS011;5555;59.622;16.556;2023-06-04T07:29:06;0.80;;;0.20;;
11004;SDS011;5555;59.622;16.556;2023-06-04T07:31:32;0.60;;;0.20;;
11004;SDS011;5555;59.622;16.556;2023-06-04T07:33:57;1.50;;;0.20;;
11004;SDS011;5555;59.622;16.556;2023-06-04T07:36:23;0.30;;;0.27;;
11004;SDS011;5555;59.622;16.556;2023-06-04T07:38:49;0.20;;;0.20;;
11004;SDS011;5555;59.622;16.556;2023-06-04T07:41:14;0.70;;;0.10;;
11004;SDS011;5555;59.622;16.556;2023-06-04T07:43:40;0.53;;;0.20;;
11004;SDS011;5555;59.622;16.556;2023-06-04T07:46:07;0.37;;;0.17;;
11004;SDS011;5555;59.622;16.556;2023-06-04T07:48:34;0.53;;;0.20;;
11004;SDS011;5555;59.622;16.556;2023-06-04T07:51:00;0.20;;;0.20;;
11004;SDS011;5555;59.622;16.556;2023-06-04T07:53:26;0.53;;;0.20;;
11004;SDS011;5555;59.622;16.556;2023-06-04T07:55:53;0.30;;;0.13;;
11004;SDS011;5555;59.622;16.556;2023-06-04T07:58:19;0.40;;;0.20;;
11004;SDS011;5555;59.622;16.556;2023-06-04T08:00:44;0.20;;;0.10;;
11004;SDS011;5555;59.622;16.556;2023-06-04T08:03:10;0.90;;;0.40;;
11004;SDS011;5555;59.622;16.556;2023-06-04T08:05:36;0.20;;;0.10;;
11004;SDS011;5555;59.622;16.556;2023-06-04T08:08:02;0.10;;;0.10;;
11004;SDS011;5555;59.622;16.556;2023-06-04T08:10:28;0.37;;;0.13;;
11004;SDS011;5555;59.622;16.556;2023-06-04T08:12:54;0.63;;;0.30;;
11004;SDS011;5555;59.622;16.556;2023-06-04T08:15:20;2.57;;;0.40;;
11004;SDS011;5555;59.622;16.556;2023-06-04T08:17:46;0.30;;;0.20;;
11004;SDS011;5555;59.622;16.556;2023-06-04T08:20:11;0.80;;;0.20;;
11004;SDS011;5555;59.622;16.556;2023-06-04T08:22:37;0.20;;;0.20;;
11004;SDS011;5555;59.622;16.556;2023-06-04T08:25:03;0.20;;;0.20;;
11004;SDS011;5555;59.622;16.556;2023-06-04T08:27:29;0.97;;;0.20;;
11004;SDS011;5555;59.622;16.556;2023-06-04T08:29:56;1.10;;;0.30;;
11004;SDS011;5555;59.622;16.556;2023-06-04T08:32:22;0.20;;;0.20;;
11004;SDS011;5555;59.622;16.556;2023-06-04T08:34:48;0.23;;;0.20;;
11004;SDS011;5555;59.622;16.556;2023-06-04T08:37:15;0.60;;;0.30;;
11004;SDS011;5555;59.622;16.556;2023-06-04T08:39:41;1.07;;;0.20;;
11004;SDS011;5555;59.622;16.556;2023-06-04T08:42:07;0.50;;;0.10;;
11004;SDS011;5555;59.622;16.556;2023-06-04T08:44:40;0.40;;;0.30;;
11004;SDS011;5555;59.622;16.556;2023-06-04T08:47:08;0.40;;;0.20;;
11004;SDS011;5555;59.622;16.556;2023-06-04T08:49:36;1.43;;;0.20;;
11004;SDS011;5555;59.622;16.556;2023-06-04T08:52:06;0.20;;;0.20;;
11004;SDS011;5555;59.622;16.556;2023-06-04T08:54:32;0.27;;;0.27;;
11004;SDS011;5555;59.622;16.556;2023-06-04T08:56:58;2.10;;;0.70;;
11004;SDS011;5555;59.622;16.556;2023-06-04T08:59:25;0.30;;;0.27;;
11004;SDS011;5555;59.622;16.556;2023-06-04T09:01:56;0.30;;;0.20;;
11004;SDS011;5555;59.622;16.556;2023-06-04T09:04:23;0.23;;;0.20;;
11004;SDS011;5555;59.622;16.556;2023-06-04T09:06:50;0.33;;;0.10;;
11004;SDS011;5555;59.622;16.556;2023-06-04T09:09:17;0.20;;;0.20;;
11004;SDS011;5555;59.622;16.556;2023-06-04T09:11:52;0.50;;;0.30;;
11004;SDS011;5555;59.622;16.556;2023-06-04T09:14:19;0.33;;;0.13;;
11004;SDS011;5555;59.622;16.556;2023-06-04T09:16:46;0.20;;;0.20;;
11004;SDS011;5555;59.622;16.556;2023-06-04T09:19:13;0.20;;;0.10;;
11004;SDS011;5555;59.622;16.556;2023-06-04T09:21:58;0.53;;;0.30;;
11004;SDS011;5555;59.622;16.556;2023-06-04T09:24:38;0.23;;;0.23;;
11004;SDS011;5555;59.622;16.556;2023-06-04T09:27:09;0.50;;;0.30;;
11004;SDS011;5555;59.622;16.556;2023-06-04T09:29:36;0.20;;;0.20;;
11004;SDS011;5555;59.622;16.556;2023-06-04T09:32:01;0.47;;;0.30;;
11004;SDS011;5555;59.622;16.556;2023-06-04T09:34:30;0.20;;;0.20;;
11004;SDS011;5555;59.622;16.556;2023-06-04T09:36:56;0.20;;;0.20;;
11004;SDS011;5555;59.622;16.556;2023-06-04T09:39:22;0.40;;;0.20;;
11004;SDS011;5555;59.622;16.556;2023-06-04T09:42:01;0.20;;;0.20;;
11004;SDS011;5555;59.622;16.556;2023-06-04T09:44:30;1.10;;;0.20;;
11004;SDS011;5555;59.622;16.556;2023-06-04T09:46:56;0.40;;;0.20;;
11004;SDS011;5555;59.622;16.556;2023-06-04T09:49:23;0.30;;;0.30;;
11004;SDS011;5555;59.622;16.556;2023-06-04T09:51:48;0.20;;;0.20;;
11004;SDS011;5555;59.622;16.556;2023-06-04T09:54:15;0.40;;;0.20;;
11004;SDS011;5555;59.622;16.556;2023-06-04T09:56:41;1.90;;;0.30;;
11004;SDS011;5555;59.622;16.556;2023-06-04T09:59:10;0.60;;;0.20;;
11004;SDS011;5555;59.622;16.556;2023-06-04T10:01:39;0.40;;;0.30;;
11004;SDS011;5555;59.622;16.556;2023-06-04T10:04:07;1.13;;;0.20;;
11004;SDS011;5555;59.622;16.556;2023-06-04T10:06:34;0.30;;;0.20;;
11004;SDS011;5555;59.622;16.556;2023-06-04T10:09:04;0.93;;;0.20;;
11004;SDS011;5555;59.622;16.556;2023-06-04T10:11:44;2.37;;;0.50;;
11004;SDS011;5555;59.622;16.556;2023-06-04T10:14:19;0.30;;;0.30;;
11004;SDS011;5555;59.622;16.556;2023-06-04T10:16:48;0.40;;;0.27;;
11004;SDS011;5555;59.622;16.556;2023-06-04T10:19:15;2.10;;;0.40;;
11004;SDS011;5555;59.622;16.556;2023-06-04T10:21:43;0.30;;;0.20;;
11004;SDS011;5555;59.622;16.556;2023-06-04T10:24:08;0.37;;;0.20;;
11004;SDS011;5555;59.622;16.556;2023-06-04T10:26:34;0.30;;;0.30;;
11004;SDS011;5555;59.622;16.556;2023-06-04T10:29:00;0.30;;;0.20;;
11004;SDS011;5555;59.622;16.556;2023-06-04T10:31:27;0.50;;;0.20;;
11004;SDS011;5555;59.622;16.556;2023-06-04T10:33:54;1.23;;;0.20;;
11004;SDS011;5555;59.622;16.556;2023-06-04T10:36:21;0.40;;;0.30;;
11004;SDS011;5555;59.622;16.556;2023-06-04T10:38:52;1.70;;;0.40;;
11004;SDS011;5555;59.622;16.556;2023-06-04T10:41:19;1.03;;;0.30;;
11004;SDS011;5555;59.622;16.556;2023-06-04T10:43:47;0.60;;;0.40;;
11004;SDS011;5555;59.622;16.556;2023-06-04T10:46:17;1.37;;;0.20;;
11004;SDS011;5555;59.622;16.556;2023-06-04T10:48:45;1.27;;;0.40;;
11004;SDS011;5555;59.622;16.556;2023-06-04T10:51:15;0.27;;;0.20;;
11004;SDS011;5555;59.622;16.556;2023-06-04T10:53:57;0.70;;;0.20;;
11004;SDS011;5555;59.622;16.556;2023-06-04T10:58:52;0.20;;;0.20;;
11004;SDS011;5555;59.622;16.556;2023-06-04T11:01:27;0.63;;;0.20;;
11004;SDS011;5555;59.622;16.556;2023-06-04T11:03:54;0.50;;;0.30;;
11004;SDS011;5555;59.622;16.556;2023-06-04T11:06:21;0.33;;;0.27;;
11004;SDS011;5555;59.622;16.556;2023-06-04T11:08:47;1.33;;;0.30;;
11004;SDS011;5555;59.622;16.556;2023-06-04T11:11:14;0.10;;;0.10;;
11004;SDS011;5555;59.622;16.556;2023-06-04T11:13:40;0.10;;;0.10;;
11004;SDS011;5555;59.622;16.556;2023-06-04T11:16:19;0.37;;;0.27;;
11004;SDS011;5555;59.622;16.556;2023-06-04T11:18:55;0.90;;;0.30;;
11004;SDS011;5555;59.622;16.556;2023-06-04T11:21:22;0.23;;;0.20;;
11004;SDS011;5555;59.622;16.556;2023-06-04T11:23:48;2.33;;;0.37;;
11004;SDS011;5555;59.622;16.556;2023-06-04T11:26:14;0.50;;;0.20;;
11004;SDS011;5555;59.622;16.556;2023-06-04T11:28:41;0.20;;;0.20;;
11004;SDS011;5555;59.622;16.556;2023-06-04T11:31:07;0.10;;;0.10;;
11004;SDS011;5555;59.622;16.556;2023-06-04T11:33:45;0.37;;;0.20;;
11004;SDS011;5555;59.622;16.556;2023-06-04T11:36:24;0.43;;;0.20;;
11004;SDS011;5555;59.622;16.556;2023-06-04T11:38:56;0.57;;;0.20;;
11004;SDS011;5555;59.622;16.556;2023-06-04T11:41:29;0.30;;;0.20;;
11004;SDS011;5555;59.622;16.556;2023-06-04T11:43:56;0.30;;;0.20;;
11004;SDS011;5555;59.622;16.556;2023-06-04T11:46:23;0.17;;;0.17;;
11004;SDS011;5555;59.622;16.556;2023-06-04T11:48:52;0.67;;;0.30;;
11004;SDS011;5555;59.622;16.556;2023-06-04T11:51:19;0.20;;;0.20;;
11004;SDS011;5555;59.622;16.556;2023-06-04T11:53:46;0.30;;;0.20;;
11004;SDS011;5555;59.622;16.556;2023-06-04T11:56:12;0.63;;;0.33;;
11004;SDS011;5555;59.622;16.556;2023-06-04T11:58:38;0.27;;;0.13;;
11004;SDS011;5555;59.622;16.556;2023-06-04T12:01:05;0.17;;;0.10;;
11004;SDS011;5555;59.622;16.556;2023-06-04T12:03:39;0.10;;;0.10;;
11004;SDS011;5555;59.622;16.556;2023-06-04T12:06:13;0.43;;;0.20;;
11004;SDS011;5555;59.622;16.556;2023-06-04T12:08:46;0.35;;;0.30;;
11004;SDS011;5555;59.622;16.556;2023-06-04T12:11:32;0.10;;;0.03;;
11004;SDS011;5555;59.622;16.556;2023-06-04T12:13:59;0.50;;;0.30;;
11004;SDS011;5555;59.622;16.556;2023-06-04T12:16:26;0.38;;;0.15;;
11004;SDS011;5555;59.622;16.556;2023-06-04T12:18:52;0.10;;;0.10;;
11004;SDS011;5555;59.622;16.556;2023-06-04T12:21:36;1.70;;;0.30;;
11004;SDS011;5555;59.622;16.556;2023-06-04T12:24:06;2.30;;;0.23;;
11004;SDS011;5555;59.622;16.556;2023-06-04T12:26:32;0.30;;;0.20;;
11004;SDS011;5555;59.622;16.556;2023-06-04T12:29:06;0.50;;;0.30;;
11004;SDS011;5555;59.622;16.556;2023-06-04T12:31:35;0.32;;;0.20;;
11004;SDS011;5555;59.622;16.556;2023-06-04T12:34:02;0.70;;;0.20;;
11004;SDS011;5555;59.622;16.556;2023-06-04T12:36:27;0.65;;;0.10;;
11004;SDS011;5555;59.622;16.556;2023-06-04T12:38:55;0.30;;;0.30;;
11004;SDS011;5555;59.622;16.556;2023-06-04T12:41:23;0.80;;;0.20;;
11004;SDS011;5555;59.622;16.556;2023-06-04T12:43:48;0.80;;;0.30;;
11004;SDS011;5555;59.622;16.556;2023-06-04T12:46:14;0.90;;;0.20;;
11004;SDS011;5555;59.622;16.556;2023-06-04T12:48:40;1.15;;;0.20;;
11004;SDS011;5555;59.622;16.556;2023-06-04T12:51:08;0.10;;;0.00;;
11004;SDS011;5555;59.622;16.556;2023-06-04T12:53:35;0.10;;;0.10;;
11004;SDS011;5555;59.622;16.556;2023-06-04T12:56:03;1.08;;;0.20;;
11004;SDS011;5555;59.622;16.556;2023-06-04T12:58:29;0.38;;;0.30;;
11004;SDS011;5555;59.622;16.556;2023-06-04T13:00:55;0.40;;;0.20;;
11004;SDS011;5555;59.622;16.556;2023-06-04T13:03:20;0.10;;;0.10;;
11004;SDS011;5555;59.622;16.556;2023-06-04T13:05:46;0.10;;;0.10;;
11004;SDS011;5555;59.622;16.556;2023-06-04T13:08:12;0.70;;;0.10;;
11004;SDS011;5555;59.622;16.556;2023-06-04T13:10:37;0.25;;;0.10;;
11004;SDS011;5555;59.622;16.556;2023-06-04T13:13:03;0.28;;;0.20;;
11004;SDS011;5555;59.622;16.556;2023-06-04T13:15:28;0.30;;;0.10;;
11004;SDS011;5555;59.622;16.556;2023-06-04T13:17:54;0.30;;;0.20;;
11004;SDS011;5555;59.622;16.556;2023-06-04T13:20:20;0.20;;;0.20;;
11004;SDS011;5555;59.622;16.556;2023-06-04T13:22:46;0.20;;;0.10;;
11004;SDS011;5555;59.622;16.556;2023-06-04T13:25:12;0.28;;;0.10;;
11004;SDS011;5555;59.622;16.556;2023-06-04T13:27:38;0.20;;;0.20;;
11004;SDS011;5555;59.622;16.556;2023-06-04T13:30:04;0.20;;;0.20;;
11004;SDS011;5555;59.622;16.556;2023-06-04T13:32:30;0.30;;;0.30;;
11004;SDS011;5555;59.622;16.556;2023-06-04T13:34:56;0.10;;;0.05;;
11004;SDS011;5555;59.622;16.556;2023-06-04T13:37:22;0.35;;;0.17;;
11004;SDS011;5555;59.622;16.556;2023-06-04T13:39:48;0.60;;;0.10;;
11004;SDS011;5555;59.622;16.556;2023-06-04T13:42:13;0.38;;;0.13;;
11004;SDS011;5555;59.622;16.556;2023-06-04T13:44:39;0.32;;;0.17;;
11004;SDS011;5555;59.622;16.556;2023-06-04T13:47:05;0.85;;;0.10;;
11004;SDS011;5555;59.622;16.556;2023-06-04T13:49:33;0.28;;;0.20;;
11004;SDS011;5555;59.622;16.556;2023-06-04T13:51:59;0.70;;;0.20;;
11004;SDS011;5555;59.622;16.556;2023-06-04T13:54:25;0.30;;;0.10;;
11004;SDS011;5555;59.622;16.556;2023-06-04T13:56:51;0.55;;;0.20;;
11004;SDS011;5555;59.622;16.556;2023-06-04T13:59:17;0.30;;;0.20;;
11004;SDS011;5555;59.622;16.556;2023-06-04T14:01:42;0.40;;;0.30;;
11004;SDS011;5555;59.622;16.556;2023-06-04T14:04:08;0.40;;;0.20;;
11004;SDS011;5555;59.622;16.556;2023-06-04T14:06:36;1.10;;;0.60;;
11004;SDS011;5555;59.622;16.556;2023-06-04T14:09:02;0.60;;;0.50;;
11004;SDS011;5555;59.622;16.556;2023-06-04T14:11:29;0.30;;;0.30;;
11004;SDS011;5555;59.622;16.556;2023-06-04T14:13:55;1.30;;;0.30;;
11004;SDS011;5555;59.622;16.556;2023-06-04T14:16:21;1.38;;;0.20;;
11004;SDS011;5555;59.622;16.556;2023-06-04T14:18:46;0.43;;;0.20;;
11004;SDS011;5555;59.622;16.556;2023-06-04T14:21:12;0.73;;;0.20;;
11004;SDS011;5555;59.622;16.556;2023-06-04T14:23:38;1.95;;;0.28;;
11004;SDS011;5555;59.622;16.556;2023-06-04T14:26:03;1.27;;;0.30;;
11004;SDS011;5555;59.622;16.556;2023-06-04T14:28:29;0.10;;;0.10;;
11004;SDS011;5555;59.622;16.556;2023-06-04T14:30:54;0.40;;;0.20;;
11004;SDS011;5555;59.622;16.556;2023-06-04T14:33:21;0.20;;;0.20;;
11004;SDS011;5555;59.622;16.556;2023-06-04T14:35:46;0.20;;;0.13;;
11004;SDS011;5555;59.622;16.556;2023-06-04T14:38:13;2.35;;;0.10;;
11004;SDS011;5555;59.622;16.556;2023-06-04T14:40:41;0.20;;;0.20;;
11004;SDS011;5555;59.622;16.556;2023-06-04T14:43:09;0.70;;;0.30;;
11004;SDS011;5555;59.622;16.556;2023-06-04T14:45:36;1.08;;;0.25;;
11004;SDS011;5555;59.622;16.556;2023-06-04T14:48:03;0.22;;;0.20;;
11004;SDS011;5555;59.622;16.556;2023-06-04T14:50:29;0.20;;;0.10;;
11004;SDS011;5555;59.622;16.556;2023-06-04T14:52:55;1.52;;;0.20;;
11004;SDS011;5555;59.622;16.556;2023-06-04T14:55:21;0.63;;;0.20;;
11004;SDS011;5555;59.622;16.556;2023-06-04T14:57:48;0.68;;;0.20;;
11004;SDS011;5555;59.622;16.556;2023-06-04T15:00:15;0.35;;;0.25;;